createdAt,value
2023-04-03T00:00:08.030Z,2.10
2023-04-03T00:01:08.273Z,1.80
2023-04-03T00:02:08.575Z,2.00
2023-04-03T00:03:08.901Z,1.80
2023-04-03T00:04:09.258Z,1.90
2023-04-03T00:05:09.501Z,1.80
2023-04-03T00:06:09.763Z,1.90
2023-04-03T00:07:10.040Z,1.80
2023-04-03T00:08:10.288Z,1.70
2023-04-03T00:09:10.739Z,1.60
2023-04-03T00:10:10.825Z,2.00
2023-04-03T00:11:11.117Z,1.80
2023-04-03T00:12:11.362Z,2.00
2023-04-03T00:13:11.621Z,1.70
2023-04-03T00:14:11.879Z,1.80
2023-04-03T00:15:12.233Z,1.60
2023-04-03T00:16:12.482Z,1.80
2023-04-03T00:17:12.854Z,2.00
2023-04-03T00:18:13.113Z,1.80
2023-04-03T00:19:13.487Z,1.70
2023-04-03T00:20:13.744Z,2.20
2023-04-03T00:21:14.099Z,1.70
2023-04-03T00:22:14.351Z,1.80
2023-04-03T00:23:14.614Z,1.90
2023-04-03T00:24:14.858Z,1.70
2023-04-03T00:25:15.126Z,2.20
2023-04-03T00:26:15.375Z,2.10
2023-04-03T00:27:15.736Z,1.70
2023-04-03T00:28:15.992Z,1.60
2023-04-03T00:29:16.375Z,2.10
2023-04-03T00:30:16.626Z,1.80
2023-04-03T00:31:17.032Z,1.60
2023-04-03T00:32:17.262Z,1.70
2023-04-03T00:33:17.523Z,2.20
2023-04-03T00:34:17.781Z,2.30
2023-04-03T00:35:18.045Z,1.90
2023-04-03T00:36:18.367Z,2.00
2023-04-03T00:37:18.605Z,1.80
2023-04-03T00:38:18.882Z,2.10
2023-04-03T00:39:19.161Z,1.80
2023-04-03T00:40:19.426Z,1.90
2023-04-03T00:41:19.821Z,1.60
2023-04-03T00:42:20.061Z,1.80
2023-04-03T00:43:20.323Z,1.80
2023-04-03T00:44:20.578Z,1.80
2023-04-03T00:45:20.964Z,1.80
2023-04-03T00:46:21.219Z,1.90
2023-04-03T00:47:21.579Z,1.90
2023-04-03T00:48:21.959Z,1.90
2023-04-03T00:49:22.204Z,1.70
2023-04-03T00:50:22.454Z,1.70
2023-04-03T00:51:22.829Z,1.90
2023-04-03T00:52:23.102Z,1.80
2023-04-03T00:53:23.475Z,2.00
2023-04-03T00:54:23.707Z,1.80
2023-04-03T00:55:23.963Z,1.80
2023-04-03T00:56:24.219Z,1.60
2023-04-03T00:57:24.504Z,1.90
2023-04-03T00:58:24.736Z,2.10
2023-04-03T00:59:25.106Z,1.90
2023-04-03T01:00:25.357Z,1.80
2023-04-03T01:01:25.666Z,2.00
2023-04-03T01:02:26.002Z,2.00
2023-04-03T01:03:26.242Z,1.70
2023-04-03T01:04:26.520Z,1.90
2023-04-03T01:05:26.881Z,2.10
2023-04-03T01:06:27.159Z,1.90
2023-04-03T01:07:27.408Z,1.90
2023-04-03T01:08:27.671Z,1.60
2023-04-03T01:09:27.942Z,1.80
2023-04-03T01:10:28.211Z,1.80
2023-04-03T01:11:28.466Z,1.70
2023-04-03T01:12:28.731Z,1.80
2023-04-03T01:13:29.002Z,1.70
2023-04-03T01:14:29.251Z,1.70
2023-04-03T01:15:29.512Z,1.60
2023-04-03T01:16:29.811Z,1.80
2023-04-03T01:17:30.116Z,1.90
2023-04-03T01:18:30.364Z,1.90
2023-04-03T01:19:30.635Z,1.50
2023-04-03T01:20:30.878Z,1.60
2023-04-03T01:21:31.164Z,1.60
2023-04-03T01:22:31.427Z,1.60
2023-04-03T01:23:31.677Z,2.00
2023-04-03T01:24:31.924Z,1.80
2023-04-03T01:25:32.194Z,1.90
2023-04-03T01:26:32.445Z,2.00
2023-04-03T01:27:32.821Z,1.90
2023-04-03T01:28:33.084Z,1.80
2023-04-03T01:29:33.364Z,1.90
2023-04-03T01:30:33.700Z,1.90
2023-04-03T01:31:34.023Z,2.20
2023-04-03T01:32:34.277Z,1.70
2023-04-03T01:33:34.522Z,1.90
2023-04-03T01:34:34.789Z,1.60
2023-04-03T01:35:35.151Z,1.80
2023-04-03T01:36:35.448Z,2.10
2023-04-03T01:37:35.717Z,1.90
2023-04-03T01:38:35.977Z,2.10
2023-04-03T01:39:36.257Z,1.80
2023-04-03T01:40:36.769Z,1.70
2023-04-03T01:41:36.844Z,1.90
2023-04-03T01:42:37.102Z,1.90
2023-04-03T01:43:37.382Z,1.90
2023-04-03T01:44:37.634Z,1.60
2023-04-03T01:45:37.912Z,1.70
2023-04-03T01:46:38.156Z,1.90
2023-04-03T01:47:38.445Z,1.80
2023-04-03T01:48:38.689Z,1.90
2023-04-03T01:49:38.936Z,1.90
2023-04-03T01:50:39.402Z,2.00
2023-04-03T01:51:39.541Z,2.20
2023-04-03T01:52:39.800Z,1.80
2023-04-03T01:53:40.187Z,2.10
2023-04-03T01:54:40.427Z,1.60
2023-04-03T01:55:40.689Z,2.00
2023-04-03T01:56:40.964Z,1.80
2023-04-03T01:57:41.229Z,1.80
2023-04-03T01:58:41.504Z,1.90
2023-04-03T01:59:41.773Z,1.60
2023-04-03T02:00:42.023Z,1.80
2023-04-03T02:01:42.445Z,1.70
2023-04-03T02:02:42.706Z,1.90
2023-04-03T02:03:42.941Z,1.80
2023-04-03T02:04:43.208Z,1.80
2023-04-03T02:05:43.478Z,1.90
2023-04-03T02:06:43.744Z,2.10
2023-04-03T02:07:44.024Z,1.70
2023-04-03T02:08:44.296Z,1.90
2023-04-03T02:09:44.565Z,2.00
2023-04-03T02:10:44.822Z,2.00
2023-04-03T02:11:45.088Z,2.00
2023-04-03T02:12:45.351Z,2.10
2023-04-03T02:13:45.638Z,1.90
2023-04-03T02:14:45.898Z,1.80
2023-04-03T02:15:46.175Z,2.00
2023-04-03T02:16:47.607Z,1.90
2023-04-03T02:17:46.773Z,1.80
2023-04-03T02:18:47.004Z,1.80
2023-04-03T02:19:47.374Z,1.70
2023-04-03T02:20:47.642Z,1.80
2023-04-03T02:21:47.916Z,2.00
2023-04-03T02:22:48.187Z,2.00
2023-04-03T02:23:48.478Z,1.80
2023-04-03T02:24:48.747Z,2.20
2023-04-03T02:25:49.012Z,2.10
2023-04-03T02:26:49.279Z,2.00
2023-04-03T02:27:49.550Z,2.00
2023-04-03T02:28:49.810Z,1.80
2023-04-03T02:29:50.079Z,2.00
2023-04-03T02:30:50.353Z,2.20
2023-04-03T02:31:50.612Z,2.10
2023-04-03T02:32:50.917Z,2.10
2023-04-03T02:33:51.207Z,2.20
2023-04-03T02:34:51.469Z,1.70
2023-04-03T02:35:51.804Z,1.80
2023-04-03T02:36:52.039Z,2.00
2023-04-03T02:37:52.386Z,1.90
2023-04-03T02:38:52.621Z,2.20
2023-04-03T02:39:52.909Z,2.20
2023-04-03T02:40:53.176Z,2.00
2023-04-03T02:41:53.438Z,2.20
2023-04-03T02:42:53.705Z,2.00
2023-04-03T02:43:54.115Z,2.00
2023-04-03T02:44:54.394Z,1.80
2023-04-03T02:45:54.754Z,1.80
2023-04-03T02:46:55.003Z,1.80
2023-04-03T02:47:55.310Z,1.80
2023-04-03T02:48:55.549Z,2.10
2023-04-03T02:49:55.817Z,1.80
2023-04-03T02:50:56.084Z,1.90
2023-04-03T02:51:56.366Z,2.30
2023-04-03T02:52:56.635Z,2.10
2023-04-03T02:53:57.035Z,1.80
2023-04-03T02:54:57.314Z,1.80
2023-04-03T02:55:57.582Z,1.90
2023-04-03T02:56:57.885Z,1.80
2023-04-03T02:57:58.128Z,1.80
2023-04-03T02:58:58.419Z,1.90
2023-04-03T02:59:58.708Z,1.90
2023-04-03T03:00:58.996Z,1.70
2023-04-03T03:01:59.312Z,1.60
2023-04-03T03:02:59.640Z,1.80
2023-04-03T03:03:59.891Z,2.30
2023-04-03T03:05:00.232Z,1.90
2023-04-03T03:06:00.548Z,2.10
2023-04-03T03:07:00.816Z,1.80
2023-04-03T03:08:01.090Z,1.80
2023-04-03T03:09:01.405Z,1.90
2023-04-03T03:10:01.705Z,2.00
2023-04-03T03:11:01.950Z,2.00
2023-04-03T03:12:02.224Z,1.90
2023-04-03T03:13:02.497Z,1.60
2023-04-03T03:14:02.780Z,2.10
2023-04-03T03:15:03.047Z,1.90
2023-04-03T03:16:03.381Z,1.80
2023-04-03T03:17:03.664Z,2.40
2023-04-03T03:18:03.968Z,2.10
2023-04-03T03:19:04.256Z,1.90
2023-04-03T03:20:04.535Z,2.10
2023-04-03T03:21:04.796Z,2.00
2023-04-03T03:22:05.082Z,1.70
2023-04-03T03:23:05.362Z,2.10
2023-04-03T03:24:05.650Z,1.90
2023-04-03T03:25:05.919Z,1.90
2023-04-03T03:26:06.214Z,1.90
2023-04-03T03:27:06.470Z,1.90
2023-04-03T03:28:06.751Z,2.00
2023-04-03T03:29:07.044Z,1.80
2023-04-03T03:30:07.334Z,2.30
2023-04-03T03:31:07.723Z,1.90
2023-04-03T03:32:08.044Z,1.80
2023-04-03T03:33:08.388Z,1.70
2023-04-03T03:34:08.759Z,1.90
2023-04-03T03:35:08.983Z,1.90
2023-04-03T03:36:09.334Z,1.90
2023-04-03T03:37:09.610Z,2.20
2023-04-03T03:38:09.887Z,1.90
2023-04-03T03:39:10.178Z,1.70
2023-04-03T03:40:10.464Z,1.80
2023-04-03T03:41:10.731Z,2.10
2023-04-03T03:42:11.010Z,2.50
2023-04-03T03:43:11.307Z,1.90
2023-04-03T03:44:11.661Z,2.00
2023-04-03T03:45:11.896Z,2.00
2023-04-03T03:46:12.185Z,2.20
2023-04-03T03:47:12.454Z,2.10
2023-04-03T03:48:12.737Z,2.00
2023-04-03T03:49:13.018Z,1.90
2023-04-03T03:50:13.276Z,2.10
2023-04-03T03:51:13.632Z,2.20
2023-04-03T03:52:13.910Z,2.00
2023-04-03T03:53:14.170Z,1.90
2023-04-03T03:54:14.437Z,2.30
2023-04-03T03:55:14.713Z,2.00
2023-04-03T03:56:14.992Z,2.30
2023-04-03T03:57:15.294Z,2.30
2023-04-03T03:58:15.538Z,2.10
2023-04-03T03:59:15.826Z,2.20
2023-04-03T04:00:16.117Z,2.10
2023-04-03T04:01:16.474Z,1.90
2023-04-03T04:02:16.747Z,1.90
2023-04-03T04:03:17.169Z,2.00
2023-04-03T04:04:17.504Z,2.00
2023-04-03T04:05:17.784Z,2.10
2023-04-03T04:06:18.109Z,2.20
2023-04-03T04:07:18.405Z,2.10
2023-04-03T04:08:18.677Z,2.00
2023-04-03T04:09:18.984Z,2.20
2023-04-03T04:10:19.248Z,2.60
2023-04-03T04:11:19.541Z,2.40
2023-04-03T04:12:19.821Z,1.90
2023-04-03T04:13:20.105Z,1.80
2023-04-03T04:14:20.395Z,2.00
2023-04-03T04:15:20.674Z,2.30
2023-04-03T04:16:20.979Z,2.20
2023-04-03T04:17:21.274Z,1.90
2023-04-03T04:18:21.487Z,2.10
2023-04-03T04:19:21.809Z,2.50
2023-04-03T04:20:22.124Z,2.10
2023-04-03T04:21:22.483Z,2.10
2023-04-03T04:22:22.781Z,2.40
2023-04-03T04:23:23.112Z,2.20
2023-04-03T04:24:30.434Z,2.50
2023-04-03T04:25:23.723Z,2.00
2023-04-03T04:26:26.718Z,2.10
2023-04-03T04:27:24.360Z,2.20
2023-04-03T04:28:24.701Z,2.30
2023-04-03T04:29:25.043Z,2.30
2023-04-03T04:30:25.380Z,2.50
2023-04-03T04:31:25.746Z,2.00
2023-04-03T04:32:26.125Z,2.10
2023-04-03T04:33:26.360Z,1.90
2023-04-03T04:34:26.705Z,2.10
2023-04-03T04:35:27.014Z,2.00
2023-04-03T04:36:27.398Z,1.90
2023-04-03T04:37:27.703Z,2.10
2023-04-03T04:38:28.024Z,2.20
2023-04-03T04:39:28.349Z,2.20
2023-04-03T04:40:28.692Z,2.30
2023-04-03T04:41:29.153Z,1.90
2023-04-03T04:42:29.352Z,1.80
2023-04-03T04:43:29.692Z,2.10
2023-04-03T04:44:30.022Z,2.10
2023-04-03T04:45:30.328Z,2.40
2023-04-03T04:46:30.684Z,2.30
2023-04-03T04:47:31.068Z,2.20
2023-04-03T04:48:32.779Z,2.20
2023-04-03T04:49:31.667Z,2.20
2023-04-03T04:50:32.004Z,2.10
2023-04-03T04:51:41.147Z,2.20
2023-04-03T04:52:33.664Z,1.90
2023-04-03T04:53:32.908Z,1.90
2023-04-03T04:54:33.240Z,1.90
2023-04-03T04:55:33.575Z,1.90
2023-04-03T04:56:33.905Z,2.20
2023-04-03T04:57:34.346Z,2.00
2023-04-03T04:58:34.563Z,2.10
2023-04-03T04:59:34.903Z,1.90
2023-04-03T05:00:35.241Z,2.20
2023-04-03T05:01:35.590Z,1.80
2023-04-03T05:02:35.927Z,1.90
2023-04-03T05:03:36.228Z,2.20
2023-04-03T05:04:36.599Z,2.00
2023-04-03T05:05:37.055Z,2.20
2023-04-03T05:06:37.286Z,2.10
2023-04-03T05:07:37.512Z,2.30
2023-04-03T05:08:37.849Z,1.90
2023-04-03T05:09:38.297Z,2.20
2023-04-03T05:10:38.525Z,2.20
2023-04-03T05:11:38.884Z,1.80
2023-04-03T05:12:39.227Z,2.20
2023-04-03T05:13:39.521Z,2.00
2023-04-03T05:14:39.845Z,2.10
2023-04-03T05:15:40.320Z,1.90
2023-04-03T05:16:40.473Z,1.70
2023-04-03T05:17:40.817Z,1.90
2023-04-03T05:18:41.106Z,2.10
2023-04-03T05:19:41.443Z,1.90
2023-04-03T05:20:41.749Z,1.80
2023-04-03T05:21:42.078Z,1.80
2023-04-03T05:22:42.414Z,1.90
2023-04-03T05:23:42.740Z,1.80
2023-04-03T05:24:43.072Z,2.10
2023-04-03T05:25:43.376Z,2.00
2023-04-03T05:26:43.679Z,1.90
2023-04-03T05:27:43.991Z,2.00
2023-04-03T05:28:44.304Z,2.00
2023-04-03T05:29:45.153Z,1.90
2023-04-03T05:30:44.901Z,1.80
2023-04-03T05:31:45.239Z,1.90
2023-04-03T05:32:45.551Z,2.10
2023-04-03T05:33:45.840Z,1.90
2023-04-03T05:34:46.137Z,2.00
2023-04-03T05:35:46.453Z,2.10
2023-04-03T05:36:46.670Z,2.10
2023-04-03T05:37:46.951Z,2.00
2023-04-03T05:38:47.249Z,2.20
2023-04-03T05:39:47.526Z,2.40
2023-04-03T05:40:47.810Z,2.10
2023-04-03T05:41:48.118Z,2.20
2023-04-03T05:42:48.398Z,2.10
2023-04-03T05:43:48.687Z,1.90
2023-04-03T05:44:48.969Z,1.90
2023-04-03T05:45:49.272Z,1.90
2023-04-03T05:46:49.502Z,2.00
2023-04-03T05:47:49.816Z,2.00
2023-04-03T05:48:50.020Z,1.80
2023-04-03T05:49:50.289Z,2.10
2023-04-03T05:50:50.545Z,2.10
2023-04-03T05:51:50.807Z,2.10
2023-04-03T05:52:51.087Z,2.10
2023-04-03T05:53:51.390Z,2.20
2023-04-03T05:54:51.621Z,1.80
2023-04-03T05:55:51.952Z,2.00
2023-04-03T05:56:52.201Z,2.20
2023-04-03T05:57:52.442Z,1.80
2023-04-03T05:58:52.687Z,2.10
2023-04-03T05:59:52.917Z,1.90
2023-04-03T06:00:53.163Z,2.10
2023-04-03T06:01:53.402Z,1.90
2023-04-03T06:02:53.704Z,2.00
2023-04-03T06:03:54.030Z,2.00
2023-04-03T06:04:54.355Z,2.10
2023-04-03T06:05:54.470Z,1.80
2023-04-03T06:06:54.691Z,2.00
2023-04-03T06:07:55.039Z,1.70
2023-04-03T06:08:55.299Z,2.20
2023-04-03T06:09:55.529Z,1.80
2023-04-03T06:10:55.813Z,2.40
2023-04-03T06:11:56.040Z,2.00
2023-04-03T06:12:56.274Z,1.90
2023-04-03T06:13:56.498Z,2.10
2023-04-03T06:14:56.758Z,2.10
2023-04-03T06:15:56.986Z,2.00
2023-04-03T06:16:57.300Z,2.00
2023-04-03T06:17:57.563Z,1.90
2023-04-03T06:18:57.779Z,2.00
2023-04-03T06:19:58.033Z,2.10
2023-04-03T06:20:58.248Z,2.00
2023-04-03T06:21:58.589Z,1.90
2023-04-03T06:22:58.801Z,1.80
2023-04-03T06:23:59.132Z,2.00
2023-04-03T06:24:59.374Z,1.80
2023-04-03T06:25:59.568Z,2.00
2023-04-03T06:26:59.760Z,1.60
2023-04-03T06:28:00.129Z,2.00
2023-04-03T06:29:00.301Z,1.70
2023-04-03T06:30:00.653Z,1.80
2023-04-03T06:31:00.881Z,1.70
2023-04-03T06:32:01.170Z,2.20
2023-04-03T06:33:01.410Z,2.00
2023-04-03T06:34:01.591Z,2.10
2023-04-03T06:35:01.816Z,1.80
2023-04-03T06:36:02.004Z,2.00
2023-04-03T06:37:02.300Z,2.00
2023-04-03T06:38:02.516Z,1.90
2023-04-03T06:39:02.741Z,1.90
2023-04-03T06:40:02.952Z,2.00
2023-04-03T06:41:03.149Z,1.70
2023-04-03T06:42:03.356Z,2.10
2023-04-03T06:43:03.522Z,2.10
2023-04-03T06:44:03.924Z,2.10
2023-04-03T06:45:04.045Z,2.20
2023-04-03T06:46:04.268Z,1.70
2023-04-03T06:47:04.425Z,1.90
2023-04-03T06:48:04.862Z,2.50
2023-04-03T06:49:04.933Z,2.20
2023-04-03T06:50:05.240Z,2.80
2023-04-03T06:51:05.429Z,3.00
2023-04-03T06:52:05.751Z,3.30
2023-04-03T06:53:05.935Z,2.40
2023-04-03T06:54:06.126Z,2.10
2023-04-03T06:55:06.317Z,1.90
2023-04-03T06:56:06.504Z,1.70
2023-04-03T06:57:06.694Z,2.00
2023-04-03T06:58:06.990Z,2.00
2023-04-03T06:59:07.185Z,1.90
2023-04-03T07:00:07.488Z,2.00
2023-04-03T07:01:07.661Z,2.10
2023-04-03T07:02:07.984Z,1.90
2023-04-03T07:03:08.427Z,1.70
2023-04-03T07:04:08.464Z,1.70
2023-04-03T07:05:08.632Z,1.60
2023-04-03T07:06:08.798Z,1.90
2023-04-03T07:07:09.063Z,1.80
2023-04-03T07:08:09.362Z,2.00
2023-04-03T07:09:09.560Z,1.80
2023-04-03T07:10:09.846Z,1.50
2023-04-03T07:11:10.030Z,1.70
2023-04-03T07:12:10.209Z,1.70
2023-04-03T07:13:10.393Z,2.00
2023-04-03T07:14:10.668Z,1.70
2023-04-03T07:15:10.875Z,1.50
2023-04-03T07:16:11.094Z,1.70
2023-04-03T07:17:11.244Z,1.60
2023-04-03T07:18:11.590Z,1.70
2023-04-03T07:19:11.696Z,1.60
2023-04-03T07:20:12.059Z,1.50
2023-04-03T07:21:12.173Z,1.80
2023-04-03T07:22:12.355Z,1.70
2023-04-03T07:23:12.732Z,1.60
2023-04-03T07:24:15.959Z,1.50
2023-04-03T07:25:12.970Z,1.50
2023-04-03T07:26:13.144Z,1.60
2023-04-03T07:27:13.314Z,1.70
2023-04-03T07:28:13.493Z,1.70
2023-04-03T07:29:13.652Z,1.40
2023-04-03T07:30:13.959Z,1.30
2023-04-03T07:31:14.157Z,1.40
2023-04-03T07:32:14.306Z,1.50
2023-04-03T07:33:14.470Z,1.40
2023-04-03T07:34:14.703Z,1.60
2023-04-03T07:35:14.898Z,1.30
2023-04-03T07:36:15.111Z,1.50
2023-04-03T07:37:15.243Z,1.40
2023-04-03T07:38:15.517Z,1.40
2023-04-03T07:39:15.662Z,1.50
2023-04-03T07:40:15.968Z,1.20
2023-04-03T07:41:16.144Z,1.20
2023-04-03T07:42:16.300Z,1.40
2023-04-03T07:43:16.477Z,1.20
2023-04-03T07:44:16.714Z,1.30
2023-04-03T07:45:16.883Z,1.40
2023-04-03T07:46:17.097Z,1.30
2023-04-03T07:47:17.228Z,1.40
2023-04-03T07:48:17.396Z,1.30
2023-04-03T07:49:17.558Z,1.30
2023-04-03T07:50:17.835Z,1.30
2023-04-03T07:51:18.005Z,1.30
2023-04-03T07:52:18.166Z,1.30
2023-04-03T07:53:18.325Z,1.50
2023-04-03T07:54:18.499Z,1.70
2023-04-03T07:55:18.682Z,1.90
2023-04-03T07:56:18.853Z,4.00
2023-04-03T07:57:19.100Z,5.00
2023-04-03T07:58:19.256Z,4.30
2023-04-03T07:59:19.396Z,5.10
2023-04-03T08:00:19.587Z,2.50
2023-04-03T08:01:19.774Z,2.30
2023-04-03T08:02:19.995Z,2.20
2023-04-03T08:03:20.293Z,1.70
2023-04-03T08:04:20.483Z,2.20
2023-04-03T08:05:20.651Z,2.70
2023-04-03T08:06:29.414Z,2.70
2023-04-03T08:07:22.126Z,3.10
2023-04-03T08:08:21.631Z,3.10
2023-04-03T08:09:21.512Z,3.00
2023-04-03T08:10:21.748Z,2.90
2023-04-03T08:11:21.935Z,2.40
2023-04-03T08:12:22.120Z,2.00
2023-04-03T08:13:22.321Z,1.80
2023-04-03T08:14:22.493Z,1.80
2023-04-03T08:15:22.689Z,1.80
2023-04-03T08:16:22.894Z,1.50
2023-04-03T08:17:23.142Z,2.00
2023-04-03T08:18:23.313Z,1.60
2023-04-03T08:19:26.494Z,1.90
2023-04-03T08:20:23.679Z,2.10
2023-04-03T08:21:23.851Z,2.40
2023-04-03T08:22:24.026Z,1.70
2023-04-03T08:23:24.320Z,2.60
2023-04-03T08:24:24.502Z,1.80
2023-04-03T08:25:24.802Z,2.20
2023-04-03T08:26:24.977Z,2.10
2023-04-03T08:27:25.264Z,3.20
2023-04-03T08:28:25.439Z,2.30
2023-04-03T08:29:25.808Z,2.10
2023-04-03T08:30:26.021Z,2.00
2023-04-03T08:31:26.279Z,2.40
2023-04-03T08:32:26.450Z,2.90
2023-04-03T08:33:26.673Z,2.40
2023-04-03T08:34:26.863Z,1.70
2023-04-03T08:35:27.194Z,2.10
2023-04-03T08:36:27.488Z,2.20
2023-04-03T08:37:27.675Z,1.70
2023-04-03T08:38:27.889Z,1.90
2023-04-03T08:39:28.097Z,1.70
2023-04-03T08:40:28.531Z,1.30
2023-04-03T08:41:28.589Z,1.40
2023-04-03T08:42:28.795Z,2.00
2023-04-03T08:43:29.108Z,2.00
2023-04-03T08:44:29.415Z,1.60
2023-04-03T08:45:29.758Z,1.70
2023-04-03T08:46:30.013Z,1.60
2023-04-03T08:47:30.190Z,1.40
2023-04-03T08:48:30.396Z,1.60
2023-04-03T08:49:30.709Z,1.70
2023-04-03T08:50:30.917Z,1.50
2023-04-03T08:51:31.118Z,1.50
2023-04-03T08:52:31.307Z,1.80
2023-04-03T08:53:31.642Z,2.40
2023-04-03T08:54:33.958Z,1.70
2023-04-03T08:55:32.176Z,1.70
2023-04-03T08:56:32.398Z,1.60
2023-04-03T08:57:32.755Z,1.40
2023-04-03T08:58:32.908Z,1.60
2023-04-03T08:59:33.242Z,1.50
2023-04-03T09:00:33.436Z,1.60
2023-04-03T09:01:33.793Z,1.90
2023-04-03T09:02:34.030Z,1.60
2023-04-03T09:03:34.262Z,1.70
2023-04-03T09:04:34.465Z,2.10
2023-04-03T09:05:34.688Z,1.90
2023-04-03T09:06:34.925Z,1.80
2023-04-03T09:07:35.166Z,1.30
2023-04-03T09:08:35.361Z,1.80
2023-04-03T09:09:35.704Z,1.50
2023-04-03T09:10:36.063Z,1.50
2023-04-03T09:11:36.037Z,1.70
2023-04-03T09:12:36.234Z,1.70
2023-04-03T09:13:36.539Z,1.40
2023-04-03T09:14:36.771Z,1.50
2023-04-03T09:15:39.520Z,1.50
2023-04-03T09:16:37.177Z,1.70
2023-04-03T09:17:37.495Z,1.50
2023-04-03T09:18:37.734Z,1.30
2023-04-03T09:19:38.054Z,1.80
2023-04-03T09:20:38.523Z,1.60
2023-04-03T09:21:38.371Z,2.00
2023-04-03T09:22:45.661Z,1.90
2023-04-03T09:23:39.845Z,1.70
2023-04-03T09:24:38.997Z,1.60
2023-04-03T09:25:39.196Z,1.70
2023-04-03T09:26:39.366Z,1.60
2023-04-03T09:27:39.667Z,1.30
2023-04-03T09:28:49.397Z,2.40
2023-04-03T09:29:41.015Z,2.80
2023-04-03T09:30:40.403Z,2.30
2023-04-03T09:31:42.214Z,2.30
2023-04-03T09:32:40.655Z,3.80
2023-04-03T09:33:40.943Z,2.10
2023-04-03T09:34:41.110Z,1.80
2023-04-03T09:35:48.259Z,4.00
2023-04-03T09:36:42.414Z,2.00
2023-04-03T09:37:41.658Z,4.50
2023-04-03T09:38:41.805Z,4.70
2023-04-03T09:39:41.942Z,5.40
2023-04-03T09:40:42.110Z,6.80
2023-04-03T09:41:42.249Z,8.60
2023-04-03T09:42:46.175Z,15.00
2023-04-03T09:43:42.607Z,7.80
2023-04-03T09:44:42.825Z,5.10
2023-04-03T09:45:42.894Z,4.30
2023-04-03T09:46:43.067Z,3.40
2023-04-03T09:47:43.231Z,3.00
2023-04-03T09:48:43.330Z,2.30
2023-04-03T09:49:43.525Z,1.50
2023-04-03T09:50:43.635Z,1.10
2023-04-03T09:51:43.789Z,2.20
2023-04-03T09:52:43.960Z,1.80
2023-04-03T09:53:44.076Z,1.20
2023-04-03T09:54:44.203Z,1.30
2023-04-03T09:55:44.515Z,1.10
2023-04-03T09:56:44.656Z,1.40
2023-04-03T09:57:44.815Z,1.70
2023-04-03T09:58:50.251Z,1.30
2023-04-03T09:59:46.175Z,1.30
2023-04-03T10:00:45.359Z,1.40
2023-04-03T10:01:45.612Z,1.30
2023-04-03T10:02:45.802Z,1.60
2023-04-03T10:03:45.945Z,1.30
2023-04-03T10:04:48.814Z,1.50
2023-04-03T10:05:46.360Z,1.30
2023-04-03T10:06:46.580Z,1.30
2023-04-03T10:07:54.586Z,1.40
2023-04-03T10:08:47.881Z,1.30
2023-04-03T10:09:47.060Z,1.30
2023-04-03T10:10:47.257Z,1.60
2023-04-03T10:11:47.414Z,1.20
2023-04-03T10:12:47.592Z,1.20
2023-04-03T10:14:47.923Z,1.20
2023-04-03T10:15:48.199Z,1.80
2023-04-03T10:16:48.387Z,1.20
2023-04-03T10:17:48.531Z,1.30
2023-04-03T10:18:48.662Z,1.40
2023-04-03T10:19:48.790Z,1.40
2023-04-03T10:20:48.926Z,1.20
2023-04-03T10:21:49.076Z,1.20
2023-04-03T10:22:49.189Z,1.30
2023-04-03T10:23:49.413Z,1.40
2023-04-03T10:24:56.669Z,1.60
2023-04-03T10:25:49.975Z,1.30
2023-04-03T10:26:52.752Z,1.10
2023-04-03T10:27:51.963Z,1.30
2023-04-03T10:28:50.524Z,1.20
2023-04-03T10:29:50.772Z,1.30
2023-04-03T10:30:50.936Z,1.20
2023-04-03T10:31:51.076Z,1.10
2023-04-03T10:32:51.283Z,1.20
2023-04-03T10:33:51.425Z,1.10
2023-04-03T10:34:58.569Z,1.20
2023-04-03T10:35:52.821Z,1.20
2023-04-03T10:36:51.937Z,0.80
2023-04-03T10:37:52.089Z,1.10
2023-04-03T10:38:52.265Z,1.10
2023-04-03T10:39:52.409Z,1.10
2023-04-03T10:40:52.607Z,1.20
2023-04-03T10:41:55.913Z,1.30
2023-04-03T10:42:53.867Z,1.30
2023-04-03T10:43:53.006Z,1.20
2023-04-03T10:44:53.151Z,1.20
2023-04-03T10:45:53.298Z,1.00
2023-04-03T10:46:53.485Z,1.20
2023-04-03T10:47:53.664Z,1.40
2023-04-03T10:48:53.882Z,1.20
2023-04-03T10:49:59.752Z,1.10
2023-04-03T10:50:55.167Z,1.40
2023-04-03T10:51:54.353Z,1.20
2023-04-03T10:52:54.502Z,1.10
2023-04-03T10:53:54.772Z,1.30
2023-04-03T10:54:54.913Z,1.10
2023-04-03T10:55:55.177Z,1.20
2023-04-03T10:57:04.686Z,1.80
2023-04-03T10:57:56.708Z,1.40
2023-04-03T10:58:55.775Z,1.20
2023-04-03T10:59:55.944Z,1.40
2023-04-03T11:00:56.095Z,0.90
2023-04-03T11:01:56.349Z,0.90
2023-04-03T11:02:56.607Z,1.10
2023-04-03T11:03:56.857Z,1.00
2023-04-03T11:04:56.846Z,0.80
2023-04-03T11:05:57.027Z,0.80
2023-04-03T11:06:57.210Z,0.90
2023-04-03T11:07:57.421Z,1.10
2023-04-03T11:08:57.589Z,1.00
2023-04-03T11:09:57.713Z,1.10
2023-04-03T11:10:57.877Z,1.20
2023-04-03T11:11:58.075Z,1.10
2023-04-03T11:12:58.236Z,1.10
2023-04-03T11:13:58.509Z,1.00
2023-04-03T11:14:58.695Z,1.60
2023-04-03T11:15:58.915Z,1.30
2023-04-03T11:16:59.088Z,1.60
2023-04-03T11:17:59.517Z,1.10
2023-04-03T11:18:59.471Z,1.20
2023-04-03T11:19:59.757Z,1.20
2023-04-03T11:20:59.928Z,1.30
2023-04-03T11:22:00.239Z,1.30
2023-04-03T11:23:00.415Z,1.30
2023-04-03T11:24:00.588Z,1.20
2023-04-03T11:25:00.784Z,1.30
2023-04-03T11:26:01.013Z,1.00
2023-04-03T11:27:01.212Z,0.90
2023-04-03T11:28:01.468Z,1.30
2023-04-03T11:29:01.644Z,1.30
2023-04-03T11:30:01.915Z,1.30
2023-04-03T11:31:02.107Z,1.20
2023-04-03T11:32:02.401Z,1.10
2023-04-03T11:33:02.651Z,1.20
2023-04-03T11:34:02.792Z,1.30
2023-04-03T11:35:02.937Z,1.30
2023-04-03T11:36:07.336Z,1.30
2023-04-03T11:37:04.530Z,1.10
2023-04-03T11:38:03.721Z,1.50
2023-04-03T11:39:03.912Z,1.10
2023-04-03T11:40:04.090Z,1.20
2023-04-03T11:41:04.321Z,3.60
2023-04-03T11:42:12.881Z,2.90
2023-04-03T11:43:05.808Z,2.20
2023-04-03T11:44:05.000Z,1.90
2023-04-03T11:45:05.185Z,1.20
2023-04-03T11:46:05.365Z,1.60
2023-04-03T11:47:05.572Z,1.20
2023-04-03T11:48:20.973Z,1.20
2023-04-03T11:49:07.042Z,1.30
2023-04-03T11:50:06.251Z,1.20
2023-04-03T11:51:06.419Z,1.20
2023-04-03T11:52:06.602Z,1.60
2023-04-03T11:53:06.897Z,1.30
2023-04-03T11:54:07.096Z,1.10
2023-04-03T11:55:07.302Z,1.30
2023-04-03T11:56:07.493Z,1.20
2023-04-03T11:57:07.823Z,1.40
2023-04-03T11:58:07.907Z,1.30
2023-04-03T11:59:08.084Z,1.20
2023-04-03T12:00:08.374Z,1.10
2023-04-03T12:01:08.567Z,1.30
2023-04-03T12:02:08.854Z,1.20
2023-04-03T12:03:08.994Z,1.20
2023-04-03T12:04:09.301Z,1.30
2023-04-03T12:05:09.352Z,1.40
2023-04-03T12:06:09.537Z,1.50
2023-04-03T12:07:09.727Z,1.30
2023-04-03T12:08:09.960Z,1.10
2023-04-03T12:09:10.140Z,1.40
2023-04-03T12:10:11.511Z,1.80
2023-04-03T12:11:10.775Z,1.60
2023-04-03T12:12:10.925Z,2.10
2023-04-03T12:13:11.138Z,1.20
2023-04-03T12:14:11.312Z,1.20
2023-04-03T12:15:11.606Z,1.60
2023-04-03T12:16:11.793Z,2.00
2023-04-03T12:17:19.374Z,2.20
2023-04-03T12:18:12.284Z,1.90
2023-04-03T12:19:12.383Z,1.40
2023-04-03T12:20:13.627Z,1.10
2023-04-03T12:21:12.783Z,1.40
2023-04-03T12:22:12.972Z,1.50
2023-04-03T12:23:13.202Z,1.70
2023-04-03T12:24:13.362Z,1.60
2023-04-03T12:25:13.677Z,1.60
2023-04-03T12:26:13.852Z,1.60
2023-04-03T12:27:14.219Z,1.40
2023-04-03T12:28:14.446Z,1.10
2023-04-03T12:29:14.648Z,1.50
2023-04-03T12:30:14.825Z,1.10
2023-04-03T12:31:15.047Z,1.10
2023-04-03T12:32:15.269Z,1.00
2023-04-03T12:33:15.612Z,1.40
2023-04-03T12:34:15.782Z,1.30
2023-04-03T12:35:16.088Z,1.60
2023-04-03T12:36:16.329Z,1.70
2023-04-03T12:37:16.523Z,1.10
2023-04-03T12:38:16.714Z,1.60
2023-04-03T12:39:16.898Z,1.60
2023-04-03T12:40:17.215Z,1.50
2023-04-03T12:41:17.419Z,1.30
2023-04-03T12:42:17.630Z,1.30
2023-04-03T12:43:17.842Z,1.10
2023-04-03T12:44:18.053Z,1.20
2023-04-03T12:45:18.253Z,1.20
2023-04-03T12:46:18.504Z,1.60
2023-04-03T12:47:18.715Z,1.50
2023-04-03T12:48:18.896Z,1.40
2023-04-03T12:49:19.080Z,1.20
2023-04-03T12:50:19.380Z,1.00
2023-04-03T12:51:19.695Z,1.30
2023-04-03T12:52:19.876Z,1.40
2023-04-03T12:53:20.220Z,1.40
2023-04-03T12:54:20.440Z,1.30
2023-04-03T12:55:20.655Z,2.40
2023-04-03T12:56:20.852Z,1.20
2023-04-03T12:57:21.095Z,1.70
2023-04-03T12:58:21.300Z,1.30
2023-04-03T12:59:21.500Z,1.30
2023-04-03T13:00:21.694Z,1.40
2023-04-03T13:01:21.924Z,1.30
2023-04-03T13:02:22.136Z,2.00
2023-04-03T13:03:22.401Z,1.80
2023-04-03T13:04:22.594Z,1.50
2023-04-03T13:05:22.784Z,1.50
2023-04-03T13:06:22.963Z,1.40
2023-04-03T13:07:23.260Z,1.10
2023-04-03T13:08:23.445Z,1.00
2023-04-03T13:09:23.642Z,1.20
2023-04-03T13:10:23.829Z,1.30
2023-04-03T13:11:24.126Z,1.60
2023-04-03T13:12:24.307Z,1.70
2023-04-03T13:13:24.504Z,1.50
2023-04-03T13:14:24.679Z,1.40
2023-04-03T13:15:24.869Z,2.10
2023-04-03T13:16:25.083Z,1.50
2023-04-03T13:17:25.248Z,1.30
2023-04-03T13:18:25.450Z,1.20
2023-04-03T13:19:27.563Z,0.90
2023-04-03T13:20:25.879Z,0.90
2023-04-03T13:21:26.064Z,1.00
2023-04-03T13:22:26.284Z,1.10